Nearby METAR Reports

 

KHSI - Hastings, Nebraska, USA
Distance from station: NW 15mi, 25km
Updated: 07-15-2024 5:53am CDT
Clear
Clear
 Wind from WSW
Wind: WSW 3 mph , 6 km/h
Temperature: 72°F , 22°C
Dew Point: 72°F , 22°C
Humidity: 100%
Barometer: 29.85 inHg , 1010.8 hPa
Clouds: Clear
Visibility: 10 miles , 16 km
2024/07/15 10:53 KHSI 151053Z AUTO 24003KT 10SM CLR 22/22 A2985 RMK AO2 SLP086 T02220217
KAUH - Aurora, Nebraska, USA
Distance from station: NNE 35mi, 56km
Updated: 07-15-2024 5:55am CDT
Mist, Clear
Mist, Clear
 Wind from calm
Wind: Calm
Temperature: 70°F , 21°C
Dew Point: 70°F , 21°C
Humidity: 100%
Barometer: 29.82 inHg , 1009.8 hPa
Summary: Mist
Clouds: Clear
Visibility: 2 1/2 miles , 4 km
2024/07/15 10:55 KAUH 151055Z AUTO 00000KT 2 1/2SM BR CLR 21/21 A2982 RMK AO2 T02110208
 
KGRI - Grand Island, Nebraska, USA
Distance from station: N 38mi, 61km
Updated: 07-15-2024 5:53am CDT
Clear
Clear
 Wind from SSW
Wind: SSW 5 mph , 7 km/h
Temperature: 72°F , 22°C
Dew Point: 70°F , 21°C
Humidity: 94%
Barometer: 29.82 inHg , 1009.8 hPa
Clouds: Clear
Visibility: 9 miles , 14 km
2024/07/15 10:53 KGRI 151053Z AUTO 20004KT 9SM CLR 22/21 A2982 RMK AO2 SLP083 T02170206
KHJH - Hebron Muni, Nebraska, USA
Distance from station: ESE 40mi, 65km
Updated: 07-15-2024 5:55am CDT
Clear
Clear
 Wind from calm
Wind: Calm
Temperature: 73°F , 23°C
Dew Point: 66°F , 19°C
Humidity: 78%
Barometer: 29.81 inHg , 1009.5 hPa
Clouds: Clear
Visibility: 10 miles , 16 km
2024/07/15 10:55 KHJH 151055Z AUTO 00000KT 10SM CLR 23/19 A2981 RMK AO2 T02270189
 
KEAR - Kearney Muni, Nebraska, USA
Distance from station: WNW 44mi, 70km
Updated: 07-15-2024 5:56am CDT
Clear
Clear
 Wind from calm
Wind: Calm
Temperature: 72°F , 22°C
Dew Point: 70°F , 21°C
Humidity: 94%
Barometer: 29.86 inHg , 1011.2 hPa
Clouds: Clear
Visibility: 9 miles , 14 km
2024/07/15 10:56 KEAR 151056Z AUTO 00000KT 9SM CLR 22/21 A2986 RMK AO2 SLP086 T02170211
KJYR - York, Nebraska, USA
Distance from station: NE 47mi, 76km
Updated: 07-15-2024 5:55am CDT
Clear
Clear
 Wind from SE
Wind: SE 3 mph , 6 km/h
Temperature: 70°F , 21°C
Dew Point: 70°F , 21°C
Humidity: 100%
Barometer: 29.80 inHg , 1009.1 hPa
Clouds: Clear
Visibility: 9 miles , 14 km
2024/07/15 10:55 KJYR 151055Z AUTO 13003KT 9SM CLR 21/21 A2980 RMK AO2
 
KK82 - Smith Center, Kansas, USA
Distance from station: SSW 53mi, 86km
Updated: 07-15-2024 5:55am CDT
Clear
Clear
 Wind from W
Wind: W 5 mph , 7 km/h
Temperature: 68°F , 20°C
Dew Point: 68°F , 20°C
Humidity: 100%
Barometer: 29.86 inHg , 1011.2 hPa
Clouds: Clear
Visibility: 10 miles , 16 km
2024/07/15 10:55 KK82 151055Z AUTO 27004KT 10SM CLR 20/20 A2986 RMK AO2 TSNO T02040196
KHDE - Holdrege/Brewstr, Nebraska, USA
Distance from station: W 56mi, 91km
Updated: 07-15-2024 5:55am CDT
Mist, Clear
Mist, Clear
 Wind from NW
Wind: NW 5 mph , 7 km/h
Temperature: 70°F , 21°C
Dew Point: 68°F , 20°C
Humidity: 94%
Barometer: 29.86 inHg , 1011.2 hPa
Summary: Mist
Clouds: Clear
Visibility: 5 miles , 8 km
2024/07/15 10:55 KHDE 151055Z AUTO 31004KT 5SM BR CLR 21/20 A2986 RMK AO2 T02050198